createdAt,value
2023-11-23T00:00:27.113Z,0.94
2023-11-23T00:02:53.383Z,0.95
2023-11-23T00:08:03.809Z,0.91
2023-11-23T00:10:30.103Z,0.92
2023-11-23T00:12:56.366Z,0.88
2023-11-23T00:15:22.645Z,0.85
2023-11-23T00:20:29.022Z,0.74
2023-11-23T00:22:57.723Z,0.74
2023-11-23T00:25:25.545Z,0.78
2023-11-23T00:27:51.758Z,0.77
2023-11-23T00:30:18.004Z,0.81
2023-11-23T00:32:44.398Z,0.85
2023-11-23T00:35:10.749Z,0.80
2023-11-23T00:37:36.964Z,0.88
2023-11-23T00:40:03.238Z,0.89
2023-11-23T00:42:31.704Z,0.94
2023-11-23T00:44:57.956Z,0.92
2023-11-23T00:47:24.300Z,0.98
2023-11-23T00:49:51.352Z,0.97
2023-11-23T00:52:17.566Z,0.96
2023-11-23T00:54:46.030Z,0.94
2023-11-23T00:57:22.792Z,0.94
2023-11-23T00:59:49.027Z,0.87
2023-11-23T01:02:15.334Z,0.82
2023-11-23T01:04:41.628Z,0.77
2023-11-23T01:07:07.825Z,0.69
2023-11-23T01:09:34.029Z,0.60
2023-11-23T01:12:00.399Z,0.50
2023-11-23T01:14:26.623Z,0.44
2023-11-23T01:16:52.893Z,0.41
2023-11-23T01:19:19.114Z,0.36
2023-11-23T01:21:45.354Z,0.33
2023-11-23T01:24:12.427Z,0.29
2023-11-23T01:26:38.782Z,0.25
2023-11-23T01:29:05.030Z,0.22
2023-11-23T01:31:31.240Z,0.20
2023-11-23T01:33:57.639Z,0.16
2023-11-23T01:36:23.927Z,0.14
2023-11-23T01:38:50.159Z,0.10
2023-11-23T01:41:16.441Z,0.07
2023-11-23T01:43:42.668Z,0.04
2023-11-23T01:46:08.944Z,0.04
2023-11-23T01:48:35.280Z,0.00
2023-11-23T01:51:01.636Z,0.03
2023-11-23T01:53:27.893Z,0.03
2023-11-23T01:55:54.115Z,0.03
2023-11-23T01:58:20.383Z,0.03
2023-11-23T02:00:46.597Z,-0.02
2023-11-23T02:03:12.912Z,-0.02
2023-11-23T02:05:39.489Z,-0.07
2023-11-23T02:08:05.784Z,-0.08
2023-11-23T02:10:32.003Z,-0.10
2023-11-23T02:12:58.229Z,-0.11
2023-11-23T02:15:24.450Z,-0.13
2023-11-23T02:17:51.824Z,-0.16
2023-11-23T02:20:18.122Z,-0.19
2023-11-23T02:22:44.372Z,-0.20
2023-11-23T02:25:10.636Z,-0.19
2023-11-23T02:27:36.884Z,-0.24
2023-11-23T02:30:03.305Z,-0.26
2023-11-23T02:32:29.625Z,-0.27
2023-11-23T02:34:55.807Z,-0.24
2023-11-23T02:37:22.044Z,-0.17
2023-11-23T02:39:48.301Z,-0.21
2023-11-23T02:42:14.550Z,-0.22
2023-11-23T02:44:40.824Z,-0.27
2023-11-23T02:49:57.469Z,-0.29
2023-11-23T02:52:23.690Z,-0.28
2023-11-23T02:54:49.885Z,-0.28
2023-11-23T02:57:16.173Z,-0.27
2023-11-23T02:59:42.449Z,-0.39
2023-11-23T03:02:08.730Z,-0.34
2023-11-23T03:04:35.007Z,-0.34
2023-11-23T03:07:01.223Z,-0.32
2023-11-23T03:09:27.508Z,-0.35
2023-11-23T03:11:53.790Z,-0.33
2023-11-23T03:14:20.033Z,-0.39
2023-11-23T03:16:46.262Z,-0.42
2023-11-23T03:19:12.511Z,-0.45
2023-11-23T03:21:38.847Z,-0.48
2023-11-23T03:24:05.189Z,-0.50
2023-11-23T03:26:31.459Z,-0.53
2023-11-23T03:28:57.654Z,-0.49
2023-11-23T03:31:23.836Z,-0.50
2023-11-23T03:33:50.108Z,-0.50
2023-11-23T03:36:16.334Z,-0.49
2023-11-23T03:38:42.593Z,-0.49
2023-11-23T03:41:08.835Z,-0.48
2023-11-23T03:43:35.127Z,-0.44
2023-11-23T03:46:01.422Z,-0.45
2023-11-23T03:48:27.756Z,-0.44
2023-11-23T03:50:54.026Z,-0.45
2023-11-23T03:53:20.210Z,-0.46
2023-11-23T03:55:46.378Z,-0.49
2023-11-23T03:58:12.583Z,-0.47
2023-11-23T04:00:38.764Z,-0.48
2023-11-23T04:03:04.983Z,-0.51
2023-11-23T04:05:31.197Z,-0.49
2023-11-23T04:07:57.421Z,-0.54
2023-11-23T04:10:23.645Z,-0.53
2023-11-23T04:12:51.965Z,-0.54
2023-11-23T04:15:18.569Z,-0.51
2023-11-23T04:17:44.911Z,-0.50
2023-11-23T04:20:11.211Z,-0.52
2023-11-23T04:22:37.518Z,-0.48
2023-11-23T04:25:03.737Z,-0.44
2023-11-23T04:27:29.992Z,-0.50
2023-11-23T04:29:56.281Z,-0.53
2023-11-23T04:32:22.469Z,-0.54
2023-11-23T04:34:48.718Z,-0.57
2023-11-23T04:37:14.948Z,-0.62
2023-11-23T04:39:41.268Z,-0.63
2023-11-23T04:42:07.567Z,-0.63
2023-11-23T04:44:33.793Z,-0.61
2023-11-23T04:46:59.971Z,-0.62
2023-11-23T04:49:26.235Z,-0.64
2023-11-23T04:51:52.462Z,-0.63
2023-11-23T04:54:18.679Z,-0.61
2023-11-23T04:56:44.952Z,-0.58
2023-11-23T04:59:11.182Z,-0.59
2023-11-23T05:01:37.434Z,-0.64
2023-11-23T05:04:05.941Z,-0.68
2023-11-23T05:06:32.619Z,-0.71
2023-11-23T05:08:58.832Z,-0.69
2023-11-23T05:11:25.041Z,-0.65
2023-11-23T05:13:51.267Z,-0.52
2023-11-23T05:16:17.562Z,-0.50
2023-11-23T05:18:44.669Z,-0.43
2023-11-23T05:21:14.578Z,-0.34
2023-11-23T05:23:40.845Z,-0.24
2023-11-23T05:26:07.052Z,-0.24
2023-11-23T05:28:33.237Z,-0.25
2023-11-23T05:30:59.467Z,-0.21
2023-11-23T05:33:28.819Z,-0.21
2023-11-23T05:35:55.126Z,-0.13
2023-11-23T05:38:21.397Z,-0.02
2023-11-23T05:40:47.600Z,0.07
2023-11-23T05:43:13.833Z,0.14
2023-11-23T05:45:40.038Z,0.29
2023-11-23T05:48:06.314Z,0.24
2023-11-23T05:50:32.642Z,0.38
2023-11-23T05:52:58.824Z,0.42
2023-11-23T05:55:25.005Z,0.46
2023-11-23T05:57:51.213Z,0.52
2023-11-23T06:00:17.410Z,0.57
2023-11-23T06:02:43.688Z,0.63
2023-11-23T06:05:10.095Z,0.70
2023-11-23T06:07:36.419Z,0.73
2023-11-23T06:10:02.667Z,0.77
2023-11-23T06:12:28.915Z,0.83
2023-11-23T06:14:55.177Z,0.95
2023-11-23T06:17:21.441Z,0.99
2023-11-23T06:19:47.622Z,1.04
2023-11-23T06:22:13.795Z,1.10
2023-11-23T06:24:40.024Z,1.27
2023-11-23T06:27:06.225Z,1.34
2023-11-23T06:29:32.463Z,1.35
2023-11-23T06:32:01.222Z,1.36
2023-11-23T06:34:28.273Z,1.39
2023-11-23T06:36:54.509Z,1.44
2023-11-23T06:39:20.759Z,1.49
2023-11-23T06:41:46.991Z,1.56
2023-11-23T06:44:13.216Z,1.57
2023-11-23T06:46:39.629Z,1.61
2023-11-23T06:49:07.935Z,1.66
2023-11-23T06:51:34.303Z,1.71
2023-11-23T06:54:00.586Z,1.81
2023-11-23T06:56:26.868Z,1.91
2023-11-23T06:58:53.074Z,1.89
2023-11-23T07:01:19.366Z,1.91
2023-11-23T07:03:45.753Z,1.96
2023-11-23T07:06:12.305Z,2.00
2023-11-23T07:08:38.535Z,2.06
2023-11-23T07:11:06.855Z,2.11
2023-11-23T07:13:33.062Z,2.16
2023-11-23T07:15:59.279Z,2.20
2023-11-23T07:18:25.618Z,2.27
2023-11-23T07:20:51.958Z,2.37
2023-11-23T07:23:18.194Z,2.41
2023-11-23T07:25:44.425Z,2.49
2023-11-23T07:28:10.674Z,2.54
2023-11-23T07:30:36.932Z,2.57
2023-11-23T07:33:03.307Z,2.63
2023-11-23T07:35:29.603Z,2.68
2023-11-23T07:37:55.816Z,2.75
2023-11-23T07:40:22.060Z,2.74
2023-11-23T07:42:49.525Z,2.78
2023-11-23T07:45:15.838Z,2.79
2023-11-23T07:47:42.112Z,2.86
2023-11-23T07:50:08.349Z,2.87
2023-11-23T07:52:34.602Z,2.91
2023-11-23T07:55:00.841Z,2.94
2023-11-23T07:57:27.065Z,2.95
2023-11-23T07:59:53.324Z,3.00
2023-11-23T08:02:19.546Z,3.07
2023-11-23T08:04:45.775Z,3.08
2023-11-23T08:07:12.030Z,3.09
2023-11-23T08:09:38.248Z,3.17
2023-11-23T08:12:04.475Z,3.24
2023-11-23T08:14:30.696Z,3.29
2023-11-23T08:16:56.964Z,3.35
2023-11-23T08:19:23.718Z,3.36
2023-11-23T08:21:50.828Z,3.41
2023-11-23T08:24:17.312Z,3.40
2023-11-23T08:26:43.563Z,3.52
2023-11-23T08:29:09.737Z,3.58
2023-11-23T08:31:35.998Z,3.64
2023-11-23T08:34:02.208Z,3.70
2023-11-23T08:36:28.495Z,3.76
2023-11-23T08:38:54.780Z,3.76
2023-11-23T08:41:21.052Z,3.85
2023-11-23T08:43:47.414Z,3.87
2023-11-23T08:46:13.710Z,3.94
2023-11-23T08:48:39.951Z,3.99
2023-11-23T08:51:06.343Z,4.00
2023-11-23T08:53:32.616Z,4.07
2023-11-23T08:55:58.891Z,4.09
2023-11-23T08:58:25.104Z,4.09
2023-11-23T09:00:51.318Z,4.13
2023-11-23T09:03:17.579Z,4.14
2023-11-23T09:05:43.960Z,4.22
2023-11-23T09:08:10.264Z,4.28
2023-11-23T09:10:36.502Z,4.38
2023-11-23T09:13:02.745Z,4.50
2023-11-23T09:15:29.002Z,4.40
2023-11-23T09:17:55.261Z,4.43
2023-11-23T09:20:21.540Z,4.47
2023-11-23T09:22:47.822Z,4.52
2023-11-23T09:25:14.044Z,4.60
2023-11-23T09:27:40.330Z,4.60
2023-11-23T09:30:06.624Z,4.65
2023-11-23T09:32:32.830Z,4.68
2023-11-23T09:34:59.099Z,4.72
2023-11-23T09:37:25.314Z,4.84
2023-11-23T09:39:51.558Z,4.83
2023-11-23T09:42:17.792Z,4.93
2023-11-23T09:44:44.042Z,4.99
2023-11-23T09:47:10.300Z,5.08
2023-11-23T09:49:36.639Z,5.11
2023-11-23T09:52:02.954Z,5.11
2023-11-23T09:54:29.236Z,5.21
2023-11-23T09:56:55.552Z,5.19
2023-11-23T09:59:21.849Z,5.23
2023-11-23T10:01:48.177Z,5.17
2023-11-23T10:04:14.509Z,5.09
2023-11-23T10:06:40.809Z,5.17
2023-11-23T10:09:07.187Z,5.16
2023-11-23T10:11:33.393Z,5.16
2023-11-23T10:13:59.835Z,5.22
2023-11-23T10:16:26.161Z,5.21
2023-11-23T10:18:56.177Z,5.15
2023-11-23T10:21:22.513Z,5.23
2023-11-23T10:23:49.770Z,5.18
2023-11-23T10:26:16.018Z,5.16
2023-11-23T10:28:42.718Z,5.27
2023-11-23T10:31:12.206Z,5.37
2023-11-23T10:33:40.099Z,5.29
2023-11-23T10:36:06.387Z,5.38
2023-11-23T10:38:39.173Z,5.41
2023-11-23T10:41:09.900Z,5.52
2023-11-23T10:43:36.152Z,5.37
2023-11-23T10:46:02.463Z,5.36
2023-11-23T10:48:28.758Z,5.36
2023-11-23T10:50:56.342Z,5.31
2023-11-23T10:53:27.716Z,5.35
2023-11-23T10:55:53.918Z,5.45
2023-11-23T10:58:20.147Z,5.46
2023-11-23T11:00:47.629Z,5.48
2023-11-23T11:03:13.846Z,5.38
2023-11-23T11:05:40.162Z,5.35
2023-11-23T11:08:06.424Z,5.40
2023-11-23T11:10:32.608Z,5.48
2023-11-23T11:13:00.731Z,5.45
2023-11-23T11:15:28.385Z,5.47
2023-11-23T11:17:55.102Z,5.46
2023-11-23T11:20:21.323Z,5.51
2023-11-23T11:22:47.526Z,5.58
2023-11-23T11:25:13.774Z,5.52
2023-11-23T11:27:40.054Z,5.51
2023-11-23T11:30:06.334Z,5.58
2023-11-23T11:32:32.597Z,5.52
2023-11-23T11:34:58.822Z,5.62
2023-11-23T11:37:25.051Z,5.76
2023-11-23T11:39:51.272Z,5.80
2023-11-23T11:42:17.576Z,5.77
2023-11-23T11:44:43.822Z,5.78
2023-11-23T11:47:10.019Z,5.87
2023-11-23T11:49:36.281Z,5.85
2023-11-23T11:52:02.477Z,5.90
2023-11-23T11:54:28.805Z,5.95
2023-11-23T11:56:55.100Z,6.04
2023-11-23T11:59:21.332Z,5.99
2023-11-23T12:01:47.592Z,5.98
2023-11-23T12:04:13.927Z,6.05
2023-11-23T12:06:40.234Z,5.98
2023-11-23T12:09:10.862Z,5.94
2023-11-23T12:11:37.983Z,5.95
2023-11-23T12:14:06.229Z,5.88
2023-11-23T12:19:15.325Z,5.78
2023-11-23T12:21:41.614Z,5.84
2023-11-23T12:24:07.939Z,5.91
2023-11-23T12:26:34.176Z,5.89
2023-11-23T12:29:02.600Z,5.93
2023-11-23T12:31:29.124Z,5.95
2023-11-23T12:33:55.488Z,6.00
2023-11-23T12:36:21.769Z,6.06
2023-11-23T12:38:48.000Z,6.04
2023-11-23T12:41:14.205Z,6.01
2023-11-23T12:43:40.473Z,6.06
2023-11-23T12:46:06.888Z,6.03
2023-11-23T12:48:33.249Z,6.21
2023-11-23T12:50:59.549Z,6.14
2023-11-23T12:53:27.587Z,6.09
2023-11-23T12:55:53.904Z,6.14
2023-11-23T12:58:20.162Z,6.20
2023-11-23T13:00:46.439Z,6.13
2023-11-23T13:03:12.686Z,6.11
2023-11-23T13:05:39.008Z,6.02
2023-11-23T13:08:05.229Z,5.96
2023-11-23T13:10:33.464Z,6.06
2023-11-23T13:12:59.703Z,6.10
2023-11-23T13:15:28.406Z,6.06
2023-11-23T13:17:56.543Z,6.07
2023-11-23T13:20:22.950Z,6.05
2023-11-23T13:22:49.447Z,6.01
2023-11-23T13:25:15.720Z,5.95
2023-11-23T13:27:42.029Z,5.99
2023-11-23T13:30:08.285Z,6.03
2023-11-23T13:32:34.611Z,5.99
2023-11-23T13:35:03.143Z,6.12
2023-11-23T13:37:31.552Z,6.08
2023-11-23T13:39:57.770Z,6.05
2023-11-23T13:42:24.064Z,6.07
2023-11-23T13:44:50.398Z,5.95
2023-11-23T13:47:16.628Z,5.90
2023-11-23T13:49:42.895Z,5.98
2023-11-23T13:52:09.134Z,5.99
2023-11-23T13:54:35.408Z,6.00
2023-11-23T13:57:01.939Z,6.02
2023-11-23T13:59:28.132Z,6.04
2023-11-23T14:01:54.927Z,6.06
2023-11-23T14:04:21.308Z,6.02
2023-11-23T14:06:47.624Z,6.05
2023-11-23T14:09:13.999Z,6.03
2023-11-23T14:11:40.185Z,6.08
2023-11-23T14:14:06.410Z,6.10
2023-11-23T14:16:32.659Z,6.05
2023-11-23T14:18:58.951Z,6.07
2023-11-23T14:21:26.931Z,6.03
2023-11-23T14:23:54.569Z,6.07
2023-11-23T14:26:20.861Z,6.06
2023-11-23T14:28:47.138Z,6.10
2023-11-23T14:31:13.372Z,6.07
2023-11-23T14:33:39.700Z,6.04
2023-11-23T14:36:06.068Z,6.07
2023-11-23T14:38:34.844Z,6.08
2023-11-23T14:41:01.085Z,6.10
2023-11-23T14:43:32.948Z,6.10
2023-11-23T14:45:59.240Z,6.09
2023-11-23T14:48:25.554Z,6.05
2023-11-23T14:50:51.812Z,6.10
2023-11-23T14:53:18.051Z,6.02
2023-11-23T14:55:44.293Z,6.09
2023-11-23T14:58:10.591Z,6.00
2023-11-23T15:00:36.969Z,6.05
2023-11-23T15:03:03.357Z,6.02
2023-11-23T15:05:29.647Z,5.97
2023-11-23T15:07:57.127Z,5.96
2023-11-23T15:10:23.534Z,5.98
2023-11-23T15:12:49.821Z,5.95
2023-11-23T15:15:16.131Z,5.99
2023-11-23T15:17:42.385Z,6.04
2023-11-23T15:20:08.624Z,5.98
2023-11-23T15:22:34.862Z,5.94
2023-11-23T15:25:08.228Z,6.03
2023-11-23T15:27:36.739Z,6.02
2023-11-23T15:30:03.043Z,6.05
2023-11-23T15:32:29.381Z,6.10
2023-11-23T15:34:55.596Z,6.08
2023-11-23T15:37:24.258Z,6.05
2023-11-23T15:39:50.646Z,6.06
2023-11-23T15:42:16.904Z,6.06
2023-11-23T15:44:43.181Z,6.09
2023-11-23T15:47:09.359Z,6.16
2023-11-23T15:49:35.585Z,6.10
2023-11-23T15:52:01.777Z,6.07
2023-11-23T15:54:28.027Z,6.11
2023-11-23T15:56:54.250Z,6.15
2023-11-23T15:59:20.419Z,6.12
2023-11-23T16:01:46.719Z,6.03
2023-11-23T16:04:13.085Z,6.07
2023-11-23T16:06:39.393Z,6.06
2023-11-23T16:09:05.610Z,6.14
2023-11-23T16:11:31.847Z,6.17
2023-11-23T16:13:58.107Z,6.11
2023-11-23T16:16:24.367Z,6.15
2023-11-23T16:18:50.623Z,6.20
2023-11-23T16:21:16.881Z,6.16
2023-11-23T16:23:43.093Z,6.14
2023-11-23T16:26:09.305Z,6.19
2023-11-23T16:28:35.555Z,6.20
2023-11-23T16:31:01.861Z,6.21
2023-11-23T16:33:28.197Z,6.21
2023-11-23T16:35:54.434Z,6.25
2023-11-23T16:38:20.645Z,6.28
2023-11-23T16:40:46.916Z,6.31
2023-11-23T16:43:13.166Z,6.31
2023-11-23T16:45:39.447Z,6.24
2023-11-23T16:48:05.809Z,6.22
2023-11-23T16:50:32.221Z,6.21
2023-11-23T16:52:58.442Z,6.29
2023-11-23T16:55:24.638Z,6.29
2023-11-23T16:57:50.911Z,6.31
2023-11-23T17:00:19.785Z,6.38
2023-11-23T17:02:46.050Z,6.38
2023-11-23T17:05:12.298Z,6.38
2023-11-23T17:07:38.460Z,6.45
2023-11-23T17:10:04.695Z,6.48
2023-11-23T17:12:30.946Z,6.44
2023-11-23T17:14:57.467Z,6.41
2023-11-23T17:17:23.735Z,6.48
2023-11-23T17:19:50.034Z,6.53
2023-11-23T17:22:16.221Z,6.58
2023-11-23T17:24:42.940Z,6.58
2023-11-23T17:27:09.367Z,6.57
2023-11-23T17:29:35.610Z,6.63
2023-11-23T17:34:45.856Z,6.57
2023-11-23T17:37:12.210Z,6.59
2023-11-23T17:39:38.395Z,6.61
2023-11-23T17:42:04.605Z,6.68
2023-11-23T17:44:30.817Z,6.69
2023-11-23T17:46:57.990Z,6.78
2023-11-23T17:49:24.224Z,6.87
2023-11-23T17:51:50.509Z,6.87
2023-11-23T17:54:16.799Z,6.86
2023-11-23T17:56:43.042Z,6.93
2023-11-23T17:59:24.799Z,6.95
2023-11-23T18:01:55.522Z,6.95
2023-11-23T18:04:21.744Z,6.96
2023-11-23T18:06:47.987Z,6.98
2023-11-23T18:09:14.464Z,7.06
2023-11-23T18:11:40.770Z,7.11
2023-11-23T18:14:06.995Z,7.19
2023-11-23T18:16:33.247Z,7.25
2023-11-23T18:18:59.510Z,7.24
2023-11-23T18:21:25.956Z,7.24
2023-11-23T18:23:52.191Z,7.26
2023-11-23T18:26:18.509Z,7.14
2023-11-23T18:28:44.836Z,7.23
2023-11-23T18:31:12.197Z,7.24
2023-11-23T18:33:38.667Z,7.23
2023-11-23T18:36:04.943Z,7.25
2023-11-23T18:38:31.156Z,7.25
2023-11-23T18:40:57.365Z,7.21
2023-11-23T18:43:23.546Z,7.28
2023-11-23T18:45:49.784Z,7.25
2023-11-23T18:48:16.052Z,7.26
2023-11-23T18:50:42.289Z,7.30
2023-11-23T18:53:08.629Z,7.30
2023-11-23T18:55:34.891Z,7.31
2023-11-23T18:58:01.294Z,7.39
2023-11-23T19:00:27.563Z,7.38
2023-11-23T19:02:53.906Z,7.39
2023-11-23T19:05:20.272Z,7.45
2023-11-23T19:07:46.512Z,7.46
2023-11-23T19:10:12.703Z,7.48
2023-11-23T19:12:42.023Z,7.46
2023-11-23T19:15:11.984Z,7.47
2023-11-23T19:17:44.416Z,7.51
2023-11-23T19:20:17.830Z,7.46
2023-11-23T19:22:44.934Z,7.43
2023-11-23T19:25:20.369Z,7.49
2023-11-23T19:27:46.851Z,7.53
2023-11-23T19:30:13.147Z,7.52
2023-11-23T19:32:39.359Z,7.52
2023-11-23T19:35:05.791Z,7.49
2023-11-23T19:37:32.147Z,7.49
2023-11-23T19:39:58.401Z,7.52
2023-11-23T19:42:24.675Z,7.55
2023-11-23T19:44:54.165Z,7.55
2023-11-23T19:47:20.477Z,7.51
2023-11-23T19:49:48.253Z,7.55
2023-11-23T19:52:14.595Z,7.51
2023-11-23T19:54:40.879Z,7.58
2023-11-23T19:57:07.569Z,7.57
2023-11-23T19:59:36.546Z,7.60
2023-11-23T20:04:54.865Z,7.59
2023-11-23T20:07:28.044Z,7.63
2023-11-23T20:09:54.521Z,7.64
2023-11-23T20:12:21.096Z,7.64
2023-11-23T20:14:47.313Z,7.67
2023-11-23T20:17:13.781Z,7.70
2023-11-23T20:19:40.181Z,7.76
2023-11-23T20:22:06.490Z,7.79
2023-11-23T20:24:34.036Z,7.77
2023-11-23T20:29:44.453Z,7.77
2023-11-23T20:32:10.873Z,7.80
2023-11-23T20:34:37.214Z,7.86
2023-11-23T20:40:00.820Z,7.86
2023-11-23T20:45:21.335Z,7.81
2023-11-23T20:47:51.920Z,7.84
2023-11-23T20:55:45.328Z,7.91
2023-11-23T21:00:58.009Z,7.91
2023-11-23T21:03:24.493Z,7.90
2023-11-23T21:05:50.736Z,7.87
2023-11-23T21:08:16.926Z,7.94
2023-11-23T21:10:43.156Z,7.89
2023-11-23T21:13:18.793Z,7.86
2023-11-23T21:18:32.133Z,7.84
2023-11-23T21:21:04.279Z,7.82
2023-11-23T21:23:30.453Z,7.86
2023-11-23T21:25:56.692Z,7.83
2023-11-23T21:28:22.957Z,7.79
2023-11-23T21:30:49.237Z,7.85
2023-11-23T21:33:15.495Z,7.79
2023-11-23T21:35:41.723Z,7.85
2023-11-23T21:40:51.996Z,7.73
2023-11-23T21:43:18.226Z,7.80
2023-11-23T21:45:44.499Z,7.70
2023-11-23T21:48:14.034Z,7.70
2023-11-23T21:50:40.247Z,7.69
2023-11-23T21:53:06.493Z,7.76
2023-11-23T21:55:32.746Z,7.75
2023-11-23T21:57:59.051Z,7.71
2023-11-23T22:00:25.344Z,7.68
2023-11-23T22:02:51.667Z,7.65
2023-11-23T22:05:17.906Z,7.66
2023-11-23T22:07:44.080Z,7.77
2023-11-23T22:10:10.338Z,7.77
2023-11-23T22:12:36.653Z,7.73
2023-11-23T22:15:02.895Z,7.70
2023-11-23T22:17:29.112Z,7.71
2023-11-23T22:19:55.348Z,7.69
2023-11-23T22:22:21.557Z,7.72
2023-11-23T22:24:47.769Z,7.72
2023-11-23T22:27:14.001Z,7.76
2023-11-23T22:29:40.223Z,7.70
2023-11-23T22:32:06.499Z,7.66
2023-11-23T22:34:32.674Z,7.61
2023-11-23T22:36:58.931Z,7.63
2023-11-23T22:39:25.275Z,7.65
2023-11-23T22:41:51.552Z,7.66
2023-11-23T22:44:17.770Z,7.67
2023-11-23T22:46:44.046Z,7.69
2023-11-23T22:49:10.287Z,7.78
2023-11-23T22:51:36.631Z,7.71
2023-11-23T22:54:02.949Z,7.77
2023-11-23T22:56:29.183Z,7.83
2023-11-23T22:58:55.371Z,7.85
2023-11-23T23:01:21.662Z,7.84
2023-11-23T23:03:47.932Z,7.84
2023-11-23T23:06:14.168Z,7.88
2023-11-23T23:08:40.450Z,7.88
2023-11-23T23:11:06.702Z,7.87
2023-11-23T23:13:32.875Z,7.88
2023-11-23T23:15:59.132Z,7.85
2023-11-23T23:18:25.444Z,7.82
2023-11-23T23:20:51.692Z,7.82
2023-11-23T23:23:17.871Z,7.86
2023-11-23T23:25:44.077Z,7.82
2023-11-23T23:28:18.636Z,7.82
2023-11-23T23:30:52.449Z,7.74
2023-11-23T23:33:18.797Z,7.76
2023-11-23T23:35:45.101Z,7.74
2023-11-23T23:38:11.346Z,7.76
2023-11-23T23:40:37.548Z,7.73
2023-11-23T23:43:03.744Z,7.70
2023-11-23T23:45:29.996Z,7.71
2023-11-23T23:47:56.226Z,7.74
2023-11-23T23:50:22.393Z,7.69
2023-11-23T23:52:48.630Z,7.67
2023-11-23T23:55:14.820Z,7.66
2023-11-23T23:57:41.157Z,7.64
